createdAt,value
2022-09-23T00:01:21.594Z,7.18
2022-09-23T00:04:29.781Z,7.11
2022-09-23T00:07:39.937Z,7.12
2022-09-23T00:10:44.705Z,7.17
2022-09-23T00:13:50.154Z,7.16
2022-09-23T00:17:02.131Z,7.21
2022-09-23T00:20:09.902Z,7.18
2022-09-23T00:23:12.619Z,7.15
2022-09-23T00:26:24.713Z,7.19
2022-09-23T00:29:27.091Z,7.09
2022-09-23T00:32:29.452Z,6.99
2022-09-23T00:35:32.019Z,6.95
2022-09-23T00:38:44.760Z,6.99
2022-09-23T00:42:05.435Z,7.00
2022-09-23T00:45:11.975Z,7.12
2022-09-23T00:48:21.345Z,7.03
2022-09-23T00:51:25.135Z,7.08
2022-09-23T00:54:34.929Z,7.08
2022-09-23T00:57:39.114Z,7.07
2022-09-23T01:00:45.023Z,7.06
2022-09-23T01:04:02.966Z,7.01
2022-09-23T01:07:08.249Z,7.08
2022-09-23T01:10:11.987Z,7.12
2022-09-23T01:13:33.866Z,7.04
2022-09-23T01:17:01.770Z,6.99
2022-09-23T01:20:09.222Z,6.92
2022-09-23T01:23:28.493Z,6.92
2022-09-23T01:26:42.974Z,6.97
2022-09-23T01:30:05.243Z,6.92
2022-09-23T01:33:18.948Z,6.97
2022-09-23T01:36:34.812Z,7.02
2022-09-23T01:39:52.895Z,6.95
2022-09-23T01:43:10.065Z,6.95
2022-09-23T01:46:28.382Z,6.92
2022-09-23T01:49:56.118Z,6.79
2022-09-23T01:53:02.793Z,6.79
2022-09-23T01:56:15.931Z,6.73
2022-09-23T01:59:18.101Z,6.67
2022-09-23T02:02:30.371Z,6.60
2022-09-23T02:06:00.529Z,6.61
2022-09-23T02:09:11.746Z,6.59
2022-09-23T02:12:20.371Z,6.63
2022-09-23T02:15:44.427Z,6.66
2022-09-23T02:19:05.972Z,6.69
2022-09-23T02:22:14.093Z,6.61
2022-09-23T02:25:18.654Z,6.55
2022-09-23T02:28:34.294Z,6.54
2022-09-23T02:31:44.170Z,6.57
2022-09-23T02:35:10.370Z,6.54
2022-09-23T02:38:28.322Z,6.50
2022-09-23T02:41:38.009Z,6.58
2022-09-23T02:44:42.855Z,6.54
2022-09-23T02:47:55.504Z,6.48
2022-09-23T02:51:01.297Z,6.40
2022-09-23T02:54:10.316Z,6.33
2022-09-23T02:57:17.285Z,6.32
2022-09-23T03:00:30.343Z,6.35
2022-09-23T03:03:52.767Z,6.31
2022-09-23T03:07:03.169Z,6.33
2022-09-23T03:10:05.180Z,6.31
2022-09-23T03:13:30.555Z,6.26
2022-09-23T03:16:49.064Z,6.24
2022-09-23T03:20:10.494Z,6.31
2022-09-23T03:23:18.086Z,6.35
2022-09-23T03:26:26.108Z,6.26
2022-09-23T03:29:35.336Z,6.27
2022-09-23T03:32:45.990Z,6.00
2022-09-23T03:36:19.836Z,5.94
2022-09-23T03:39:29.552Z,6.11
2022-09-23T03:42:34.214Z,6.13
2022-09-23T03:45:38.254Z,6.09
2022-09-23T03:48:49.386Z,6.14
2022-09-23T03:51:51.448Z,6.07
2022-09-23T03:54:55.312Z,6.18
2022-09-23T03:58:09.063Z,6.22
2022-09-23T04:01:19.706Z,6.22
2022-09-23T04:04:30.781Z,6.19
2022-09-23T04:07:37.950Z,6.12
2022-09-23T04:10:41.653Z,6.11
2022-09-23T04:13:44.218Z,6.10
2022-09-23T04:16:47.047Z,6.09
2022-09-23T04:19:50.316Z,6.05
2022-09-23T04:22:54.546Z,6.00
2022-09-23T04:25:57.137Z,6.01
2022-09-23T04:29:07.028Z,6.06
2022-09-23T04:32:14.260Z,6.16
2022-09-23T04:35:18.786Z,6.12
2022-09-23T04:38:27.721Z,6.13
2022-09-23T04:41:36.608Z,5.89
2022-09-23T04:44:42.493Z,5.77
2022-09-23T04:47:46.424Z,5.74
2022-09-23T04:50:54.969Z,5.68
2022-09-23T04:53:57.838Z,5.63
2022-09-23T04:57:00.378Z,5.69
2022-09-23T05:00:04.637Z,5.72
2022-09-23T05:03:07.486Z,5.68
2022-09-23T05:06:15.831Z,5.70
2022-09-23T05:09:20.157Z,5.81
2022-09-23T05:12:34.172Z,5.90
2022-09-23T05:15:46.292Z,6.07
2022-09-23T05:18:48.969Z,6.15
2022-09-23T05:21:52.188Z,6.20
2022-09-23T05:24:56.409Z,6.39
2022-09-23T05:28:06.834Z,6.54
2022-09-23T05:31:09.856Z,6.57
2022-09-23T05:34:22.299Z,6.49
2022-09-23T05:37:26.023Z,6.57
2022-09-23T05:40:29.525Z,6.68
2022-09-23T05:43:36.360Z,6.80
2022-09-23T05:46:39.108Z,7.09
2022-09-23T05:49:58.697Z,7.37
2022-09-23T05:53:02.556Z,7.85
2022-09-23T05:56:16.842Z,8.34
2022-09-23T05:59:28.339Z,9.32
2022-09-23T06:02:36.757Z,9.64
2022-09-23T06:05:47.916Z,10.25
2022-09-23T06:08:56.041Z,10.84
2022-09-23T06:12:01.267Z,10.23
2022-09-23T06:15:08.314Z,9.60
2022-09-23T06:18:14.184Z,9.21
2022-09-23T06:21:26.092Z,9.14
2022-09-23T06:24:34.446Z,9.09
2022-09-23T06:27:41.772Z,9.17
2022-09-23T06:30:58.900Z,9.23
2022-09-23T06:34:11.719Z,9.33
2022-09-23T06:37:32.265Z,10.40
2022-09-23T06:40:47.348Z,13.53
2022-09-23T06:43:58.837Z,14.57
2022-09-23T06:47:01.357Z,18.04
2022-09-23T06:50:04.588Z,20.60
2022-09-23T06:53:08.600Z,21.31
2022-09-23T06:56:13.137Z,20.84
2022-09-23T06:59:20.841Z,17.24
2022-09-23T07:02:24.872Z,15.26
2022-09-23T07:05:31.357Z,14.27
2022-09-23T07:08:36.373Z,13.52
2022-09-23T07:11:39.245Z,12.62
2022-09-23T07:14:42.959Z,12.29
2022-09-23T07:17:49.245Z,12.21
2022-09-23T07:20:52.646Z,12.22
2022-09-23T07:23:58.585Z,12.01
2022-09-23T07:27:03.730Z,12.10
2022-09-23T07:30:07.974Z,12.10
2022-09-23T07:33:26.370Z,12.39
2022-09-23T07:36:33.890Z,12.40
2022-09-23T07:39:40.694Z,12.41
2022-09-23T07:42:43.981Z,12.70
2022-09-23T07:45:47.878Z,12.72
2022-09-23T07:48:51.724Z,12.91
2022-09-23T07:51:55.623Z,13.11
2022-09-23T07:54:59.386Z,13.26
2022-09-23T07:58:04.043Z,13.33
2022-09-23T08:01:09.155Z,13.47
2022-09-23T08:04:23.151Z,13.70
2022-09-23T08:07:26.310Z,13.62
2022-09-23T08:10:29.913Z,13.56
2022-09-23T08:13:33.853Z,13.51
2022-09-23T08:16:37.198Z,13.12
2022-09-23T08:19:42.489Z,13.39
2022-09-23T08:22:50.765Z,13.44
2022-09-23T08:26:01.340Z,13.46
2022-09-23T08:29:04.433Z,13.78
2022-09-23T08:32:06.946Z,14.13
2022-09-23T08:35:12.932Z,14.02
2022-09-23T08:38:16.479Z,14.08
2022-09-23T08:41:32.055Z,13.99
2022-09-23T08:44:40.691Z,14.14
2022-09-23T08:47:44.496Z,14.22
2022-09-23T08:50:54.383Z,13.99
2022-09-23T08:53:58.617Z,13.99
2022-09-23T08:57:02.870Z,14.08
2022-09-23T09:00:05.918Z,13.70
2022-09-23T09:03:20.067Z,13.93
2022-09-23T09:06:36.214Z,14.15
2022-09-23T09:09:54.552Z,14.17
2022-09-23T09:13:36.934Z,14.09
2022-09-23T09:17:02.688Z,14.32
2022-09-23T09:20:19.776Z,14.61
2022-09-23T09:23:23.611Z,14.78
2022-09-23T09:26:36.954Z,14.77
2022-09-23T09:29:43.114Z,14.94
2022-09-23T09:32:55.732Z,15.24
2022-09-23T09:36:01.571Z,15.51
2022-09-23T09:39:04.156Z,15.43
2022-09-23T09:42:08.034Z,15.74
2022-09-23T09:45:20.087Z,16.16
2022-09-23T09:48:28.183Z,16.17
2022-09-23T09:51:31.470Z,15.83
2022-09-23T09:54:35.521Z,15.47
2022-09-23T09:57:43.253Z,15.42
2022-09-23T10:00:47.049Z,15.46
2022-09-23T10:03:54.308Z,15.85
2022-09-23T10:07:17.166Z,16.26
2022-09-23T10:10:32.288Z,16.57
2022-09-23T10:13:36.585Z,16.72
2022-09-23T10:16:43.137Z,16.86
2022-09-23T10:19:50.948Z,16.74
2022-09-23T10:22:53.743Z,16.65
2022-09-23T10:26:01.857Z,17.25
2022-09-23T10:29:20.521Z,17.02
2022-09-23T10:32:30.499Z,17.00
2022-09-23T10:35:35.200Z,17.38
2022-09-23T10:38:38.810Z,17.43
2022-09-23T10:42:06.069Z,17.03
2022-09-23T10:45:47.216Z,16.76
2022-09-23T10:48:57.800Z,16.66
2022-09-23T10:52:00.361Z,16.45
2022-09-23T10:55:09.097Z,16.36
2022-09-23T10:58:11.665Z,16.34
2022-09-23T11:01:21.976Z,16.15
2022-09-23T11:04:42.471Z,16.00
2022-09-23T11:07:45.412Z,16.05
2022-09-23T11:10:48.824Z,16.16
2022-09-23T11:13:59.448Z,16.16
2022-09-23T11:17:15.018Z,16.14
2022-09-23T11:20:28.580Z,16.21
2022-09-23T11:23:33.237Z,16.11
2022-09-23T11:26:45.514Z,16.08
2022-09-23T11:29:48.238Z,16.13
2022-09-23T11:32:52.200Z,16.05
2022-09-23T11:36:01.893Z,15.83
2022-09-23T11:39:15.576Z,16.27
2022-09-23T11:42:29.052Z,16.46
2022-09-23T11:45:35.488Z,16.14
2022-09-23T11:48:41.581Z,16.22
2022-09-23T11:52:03.834Z,16.14
2022-09-23T11:55:23.225Z,15.92
2022-09-23T11:58:34.864Z,16.08
2022-09-23T12:01:45.600Z,16.18
2022-09-23T12:05:09.052Z,16.07
2022-09-23T12:08:33.435Z,15.57
2022-09-23T12:11:53.609Z,15.58
2022-09-23T12:15:00.814Z,15.43
2022-09-23T12:18:12.921Z,15.44
2022-09-23T12:21:49.068Z,15.33
2022-09-23T12:25:10.935Z,15.18
2022-09-23T12:28:19.862Z,15.36
2022-09-23T12:31:31.840Z,15.77
2022-09-23T12:34:48.555Z,15.85
2022-09-23T12:37:52.367Z,15.89
2022-09-23T12:40:56.783Z,15.61
2022-09-23T12:44:02.923Z,15.53
2022-09-23T12:47:32.382Z,15.63
2022-09-23T12:50:52.780Z,16.01
2022-09-23T12:53:57.114Z,16.14
2022-09-23T12:57:00.711Z,15.90
2022-09-23T13:00:07.050Z,15.96
2022-09-23T13:03:32.667Z,16.06
2022-09-23T13:06:56.758Z,16.05
2022-09-23T13:10:17.878Z,15.93
2022-09-23T13:13:23.619Z,15.88
2022-09-23T13:16:39.091Z,15.82
2022-09-23T13:19:43.774Z,15.90
2022-09-23T13:22:54.509Z,16.13
2022-09-23T13:26:00.080Z,16.20
2022-09-23T13:29:03.897Z,16.49
2022-09-23T13:32:13.431Z,16.89
2022-09-23T13:35:19.277Z,17.14
2022-09-23T13:38:27.013Z,16.83
2022-09-23T13:41:29.398Z,16.51
2022-09-23T13:44:32.821Z,16.36
2022-09-23T13:47:37.017Z,16.32
2022-09-23T13:50:44.854Z,16.36
2022-09-23T13:53:54.049Z,16.38
2022-09-23T13:56:57.992Z,16.29
2022-09-23T14:00:02.035Z,16.66
2022-09-23T14:03:25.040Z,16.65
2022-09-23T14:06:31.311Z,16.55
2022-09-23T14:09:36.900Z,16.36
2022-09-23T14:12:40.076Z,16.12
2022-09-23T14:15:47.130Z,15.95
2022-09-23T14:18:51.685Z,15.78
2022-09-23T14:21:56.668Z,15.64
2022-09-23T14:25:00.015Z,15.51
2022-09-23T14:28:03.423Z,15.34
2022-09-23T14:31:07.446Z,15.23
2022-09-23T14:34:33.481Z,15.12
2022-09-23T14:37:57.673Z,15.06
2022-09-23T14:41:17.637Z,14.89
2022-09-23T14:44:26.174Z,14.93
2022-09-23T14:47:30.380Z,14.95
2022-09-23T14:50:49.650Z,15.09
2022-09-23T14:53:53.671Z,15.34
2022-09-23T14:56:56.247Z,15.67
2022-09-23T15:00:10.677Z,15.92
2022-09-23T15:03:17.402Z,16.19
2022-09-23T15:06:21.320Z,16.46
2022-09-23T15:09:27.881Z,16.64
2022-09-23T15:12:30.797Z,16.80
2022-09-23T15:15:33.739Z,16.81
2022-09-23T15:18:37.767Z,16.83
2022-09-23T15:21:43.115Z,16.83
2022-09-23T15:24:46.414Z,17.01
2022-09-23T15:27:56.384Z,16.83
2022-09-23T15:30:58.948Z,16.76
2022-09-23T15:34:02.831Z,16.64
2022-09-23T15:37:05.452Z,16.42
2022-09-23T15:40:16.130Z,16.32
2022-09-23T15:43:23.916Z,16.28
2022-09-23T15:46:27.372Z,16.16
2022-09-23T15:49:41.697Z,16.02
2022-09-23T15:52:45.691Z,15.94
2022-09-23T15:55:50.936Z,15.75
2022-09-23T15:58:54.409Z,15.63
2022-09-23T16:02:01.487Z,15.53
2022-09-23T16:05:07.876Z,15.44
2022-09-23T16:08:10.692Z,15.32
2022-09-23T16:11:20.330Z,15.27
2022-09-23T16:14:22.803Z,15.19
2022-09-23T16:17:25.472Z,15.14
2022-09-23T16:20:33.155Z,15.08
2022-09-23T16:23:40.584Z,15.02
2022-09-23T16:26:46.163Z,14.98
2022-09-23T16:29:48.572Z,14.86
2022-09-23T16:32:52.479Z,14.76
2022-09-23T16:35:57.160Z,14.67
2022-09-23T16:39:00.325Z,14.50
2022-09-23T16:42:03.194Z,14.36
2022-09-23T16:45:09.922Z,14.25
2022-09-23T16:48:12.457Z,14.13
2022-09-23T16:51:18.275Z,13.92
2022-09-23T16:54:23.552Z,13.75
2022-09-23T16:57:25.478Z,13.62
2022-09-23T17:00:46.533Z,13.46
2022-09-23T17:03:49.884Z,13.22
2022-09-23T17:06:58.534Z,13.06
2022-09-23T17:10:00.726Z,12.96
2022-09-23T17:13:09.607Z,12.77
2022-09-23T17:16:23.118Z,12.62
2022-09-23T17:19:26.343Z,12.45
2022-09-23T17:22:29.841Z,12.28
2022-09-23T17:25:34.679Z,12.14
2022-09-23T17:28:37.381Z,12.02
2022-09-23T17:31:40.884Z,11.99
2022-09-23T17:34:44.573Z,11.88
2022-09-23T17:37:48.206Z,11.82
2022-09-23T17:40:56.950Z,11.79
2022-09-23T17:44:01.118Z,11.66
2022-09-23T17:47:06.446Z,11.56
2022-09-23T17:50:15.716Z,11.56
2022-09-23T17:53:18.086Z,11.48
2022-09-23T17:56:25.172Z,11.36
2022-09-23T17:59:28.666Z,11.28
2022-09-23T18:02:31.301Z,11.14
2022-09-23T18:05:38.856Z,10.93
2022-09-23T18:08:43.809Z,10.91
2022-09-23T18:11:47.499Z,10.91
2022-09-23T18:14:54.379Z,10.75
2022-09-23T18:18:01.672Z,10.64
2022-09-23T18:21:05.834Z,10.54
2022-09-23T18:27:35.424Z,10.52
2022-09-23T18:30:38.879Z,10.36
2022-09-23T18:33:43.560Z,10.26
2022-09-23T18:36:46.837Z,10.21
2022-09-23T18:39:50.423Z,10.18
2022-09-23T18:42:55.227Z,10.16
2022-09-23T18:45:58.954Z,10.10
2022-09-23T18:49:20.835Z,10.07
2022-09-23T18:52:23.803Z,10.07
2022-09-23T18:55:30.913Z,9.98
2022-09-23T18:58:33.494Z,9.95
2022-09-23T19:01:35.865Z,9.91
2022-09-23T19:04:38.878Z,9.86
2022-09-23T19:07:41.346Z,9.80
2022-09-23T19:11:00.321Z,9.75
2022-09-23T19:14:07.430Z,9.64
2022-09-23T19:17:10.896Z,9.56
2022-09-23T19:20:14.709Z,9.52
2022-09-23T19:23:18.030Z,9.42
2022-09-23T19:26:26.633Z,9.30
2022-09-23T19:29:32.858Z,9.23
2022-09-23T19:32:35.161Z,9.32
2022-09-23T19:35:46.833Z,9.24
2022-09-23T19:38:53.083Z,9.15
2022-09-23T19:42:04.301Z,9.01
2022-09-23T19:45:09.346Z,9.01
2022-09-23T19:48:11.515Z,8.88
2022-09-23T19:51:14.413Z,8.89
2022-09-23T19:54:21.267Z,8.82
2022-09-23T19:57:27.051Z,8.81
2022-09-23T20:00:29.970Z,8.84
2022-09-23T20:03:37.435Z,8.79
2022-09-23T20:06:42.762Z,8.78
2022-09-23T20:09:47.213Z,8.63
2022-09-23T20:12:56.751Z,8.57
2022-09-23T20:16:07.143Z,8.50
2022-09-23T20:19:12.372Z,8.45
2022-09-23T20:22:33.007Z,8.38
2022-09-23T20:25:56.944Z,8.28
2022-09-23T20:29:01.658Z,8.22
2022-09-23T20:32:04.258Z,8.15
2022-09-23T20:35:11.050Z,8.08
2022-09-23T20:38:18.022Z,8.04
2022-09-23T20:41:20.606Z,7.98
2022-09-23T20:44:24.095Z,7.89
2022-09-23T20:47:27.192Z,7.87
2022-09-23T20:50:29.920Z,7.91
2022-09-23T20:53:33.020Z,7.82
2022-09-23T20:56:35.454Z,7.76
2022-09-23T20:59:42.038Z,7.70
2022-09-23T21:02:45.373Z,7.62
2022-09-23T21:05:48.543Z,7.61
2022-09-23T21:08:56.736Z,7.61
2022-09-23T21:12:00.392Z,7.70
2022-09-23T21:15:03.737Z,7.55
2022-09-23T21:18:13.667Z,7.49
2022-09-23T21:21:29.804Z,7.47
2022-09-23T21:25:16.005Z,7.57
2022-09-23T21:28:07.015Z,7.45
2022-09-23T21:31:20.233Z,7.37
2022-09-23T21:34:27.843Z,7.28
2022-09-23T21:37:30.880Z,7.17
2022-09-23T21:40:51.916Z,7.17
2022-09-23T21:43:57.191Z,7.28
2022-09-23T21:47:01.811Z,7.33
2022-09-23T21:50:06.070Z,7.25
2022-09-23T21:53:13.945Z,7.17
2022-09-23T21:56:22.673Z,7.12
2022-09-23T21:59:26.584Z,7.04
2022-09-23T22:02:29.476Z,7.06
2022-09-23T22:05:35.962Z,6.99
2022-09-23T22:08:40.572Z,6.96
2022-09-23T22:12:07.991Z,6.87
2022-09-23T22:15:11.941Z,6.84
2022-09-23T22:18:15.178Z,6.93
2022-09-23T22:21:22.337Z,6.94
2022-09-23T22:24:28.824Z,6.88
2022-09-23T22:27:32.029Z,6.82
2022-09-23T22:30:53.692Z,6.74
2022-09-23T22:34:01.952Z,6.83
2022-09-23T22:37:05.810Z,6.82
2022-09-23T22:40:16.570Z,6.72
2022-09-23T22:43:22.802Z,6.65
2022-09-23T22:46:27.751Z,6.65
2022-09-23T22:49:32.774Z,6.61
2022-09-23T22:52:35.588Z,6.54
2022-09-23T22:55:38.405Z,6.45
2022-09-23T22:58:43.188Z,6.43
2022-09-23T23:01:47.617Z,6.44
2022-09-23T23:04:50.574Z,6.52
2022-09-23T23:07:59.550Z,6.48
2022-09-23T23:11:11.219Z,6.39
2022-09-23T23:14:17.027Z,6.43
2022-09-23T23:17:19.582Z,6.53
2022-09-23T23:20:25.209Z,6.54
2022-09-23T23:23:28.418Z,6.44
2022-09-23T23:26:34.835Z,6.37
2022-09-23T23:29:39.762Z,6.35
2022-09-23T23:32:45.878Z,6.41
2022-09-23T23:35:58.444Z,6.43
2022-09-23T23:39:02.062Z,6.38
2022-09-23T23:42:05.727Z,6.29
2022-09-23T23:45:10.029Z,6.22
2022-09-23T23:48:14.452Z,6.21
2022-09-23T23:51:19.753Z,6.16
2022-09-23T23:54:25.142Z,6.14
2022-09-23T23:57:29.092Z,6.17
